Terminal Aerodrome Forecast
Issued by NWS Denver/Boulder, CO

Home | Current Version | Previous Version | Text Only | Print | Product List | Glossary On
Versions: 1 2 3 4 5 6 7 8 9 10 11 12 13 14 15 16 17 18 19 20 21 22 23 24 25 26 27 28 29 30 31 32 33 34 35 36 37 38 39 40 41 42 43 44 45 46 47 48 49 50
445
FTUS45 KBOU 180141 AAA
TAFDEN
TAF AMD
KDEN 180141Z 1802/1906 36020G28KT P6SM SCT020 BKN040 OVC060
      TEMPO 1802/1805 -SHRA BKN020
     FM180900 32018G26KT P6SM SCT030 BKN060
     FM181100 30013G21KT P6SM FEW030 BKN080
     FM181400 20010KT P6SM FEW080
     FM182000 07006KT P6SM FEW080
     FM190100 15006KT P6SM SKC=

USA.gov is the U.S. government's official web portal to all federal, state and local government web resources and services.